Time;durP1;ratioP1;P1;durP2;ratioP2;P2;SDS_P1;SDS_P2;PMS_P1;PMS_P2;Temp;Humidity;BMP_temperature;BMP_pressure;BME280_temperature;BME280_humidity;BME280_pressure;Samples;Min_cycle;Max_cycle;Signal;HPM_P1;HPM_P2
2021/11/15 00:01:24;;;;;;;;;;;;;;;16.87;47.25;102826.66;5021310;28;19917;-87
2021/11/15 00:03:49;;;;;;;;;;;;;;;16.39;48.76;102816.78;5021041;28;19975;-85
2021/11/15 00:06:15;;;;;;;;;;;;;;;16.69;48.15;102816.47;5022002;28;19924;-86
2021/11/15 00:08:40;;;;;;;;;;;;;;;17.43;46.52;102810.56;5021526;28;20316;-86
2021/11/15 00:11:05;;;;;;;;;;;;;;;17.58;46.13;102812.59;5022032;28;19993;-86
2021/11/15 00:13:30;;;;;;;;;;;;;;;17.20;46.23;102809.75;5020888;28;19924;-86
2021/11/15 00:15:56;;;;;;;;;;;;;;;16.99;47.89;102814.31;5021748;28;19906;-86
2021/11/15 00:18:21;;;;;;;;;;;;;;;16.91;47.90;102817.38;5020644;28;20398;-85
2021/11/15 00:20:46;;;;;;;;;;;;;;;16.68;48.58;102814.69;5019130;28;20298;-86
2021/11/15 00:23:12;;;;;;;;;;;;;;;17.27;46.77;102819.47;5036252;28;20451;-88
2021/11/15 00:25:37;;;;;;;;;;;;;;;16.52;47.68;102809.88;5019701;28;19929;-87
2021/11/15 00:28:03;;;;;;;;;;;;;;;16.43;48.89;102810.25;5020716;28;19917;-87
2021/11/15 00:30:28;;;;;;;;;;;;;;;16.76;47.95;102807.06;5037720;28;19923;-86
2021/11/15 00:32:54;;;;;;;;;;;;;;;17.71;45.66;102812.94;5025434;28;19918;-86
2021/11/15 00:35:19;;;;;;;;;;;;;;;16.42;48.28;102812.06;5020673;28;19925;-85
2021/11/15 00:37:44;;;;;;;;;;;;;;;16.62;47.98;102803.06;5035639;28;20382;-87
2021/11/15 00:40:11;;;;;;;;;;;;;;;17.54;46.02;102811.84;5019798;28;19924;-87
2021/11/15 00:42:37;;;;;;;;;;;;;;;17.49;46.30;102818.50;5020894;28;19921;-86
2021/11/15 00:45:03;;;;;;;;;;;;;;;17.62;45.74;102811.50;5020776;28;19972;-87
2021/11/15 00:47:28;;;;;;;;;;;;;;;17.74;45.27;102807.31;5020913;28;20322;-87
2021/11/15 00:49:53;;;;;;;;;;;;;;;17.40;45.80;102807.97;5022458;28;19960;-86
2021/11/15 00:52:19;;;;;;;;;;;;;;;16.92;46.44;102808.19;5021605;28;19918;-85
2021/11/15 00:54:44;;;;;;;;;;;;;;;17.36;45.44;102799.91;5019617;28;19925;-86
2021/11/15 00:57:09;;;;;;;;;;;;;;;17.73;44.82;102801.91;5020069;28;20293;-87
2021/11/15 00:59:35;;;;;;;;;;;;;;;17.60;45.07;102805.19;5022293;28;20009;-86
2021/11/15 01:02:01;;;;;;;;;;;;;;;16.76;46.87;102807.06;5021564;28;20286;-87
2021/11/15 01:04:26;;;;;;;;;;;;;;;17.29;45.76;102806.59;5022786;28;19925;-87
2021/11/15 01:06:53;;;;;;;;;;;;;;;17.65;44.51;102803.16;5024875;28;20282;-88
2021/11/15 01:09:19;;;;;;;;;;;;;;;17.41;45.14;102802.41;5021857;28;19922;-87
2021/11/15 01:11:44;;;;;;;;;;;;;;;16.66;47.10;102806.56;5036191;28;20012;-85
2021/11/15 01:14:09;;;;;;;;;;;;;;;17.05;46.28;102813.16;5019903;28;19924;-85
2021/11/15 01:16:34;;;;;;;;;;;;;;;16.96;46.34;102804.38;5021430;28;19918;-86
2021/11/15 01:19:00;;;;;;;;;;;;;;;17.80;44.47;102797.91;5037936;28;19976;-87
2021/11/15 01:21:28;;;;;;;;;;;;;;;17.15;45.50;102803.56;5022528;28;19957;-86
2021/11/15 01:23:54;;;;;;;;;;;;;;;17.07;45.70;102801.16;5021091;28;19932;-86
2021/11/15 01:26:19;;;;;;;;;;;;;;;16.67;46.80;102800.13;5020564;28;19928;-86
2021/11/15 01:28:44;;;;;;;;;;;;;;;16.81;45.93;102797.69;5021936;28;20363;-85
2021/11/15 01:31:10;;;;;;;;;;;;;;;17.09;45.61;102795.63;5036942;28;20012;-85
2021/11/15 01:33:35;;;;;;;;;;;;;;;16.78;45.87;102786.91;5037622;28;19964;-88
2021/11/15 01:36:00;;;;;;;;;;;;;;;17.39;45.06;102789.75;5021176;28;20459;-86
2021/11/15 01:38:25;;;;;;;;;;;;;;;16.13;47.47;102789.56;5021144;28;19906;-88
2021/11/15 01:40:51;;;;;;;;;;;;;;;16.92;45.71;102783.59;5022070;28;19960;-87
2021/11/15 01:43:16;;;;;;;;;;;;;;;17.14;45.16;102783.53;5037358;28;19960;-86
2021/11/15 01:45:41;;;;;;;;;;;;;;;16.82;45.35;102776.72;5024373;28;19972;-87
2021/11/15 01:48:08;;;;;;;;;;;;;;;16.35;46.41;102779.59;5024209;28;19924;-85
2021/11/15 01:50:35;;;;;;;;;;;;;;;16.99;45.69;102782.38;5024169;28;19969;-86
2021/11/15 01:53:01;;;;;;;;;;;;;;;17.13;45.17;102781.75;5024841;28;19921;-87
2021/11/15 01:55:27;;;;;;;;;;;;;;;17.59;44.15;102777.88;5024347;28;19992;-87
2021/11/15 01:57:54;;;;;;;;;;;;;;;16.57;45.71;102780.50;5025388;28;19918;-85
2021/11/15 02:00:21;;;;;;;;;;;;;;;16.19;46.83;102780.25;5023943;28;19924;-84
2021/11/15 02:02:47;;;;;;;;;;;;;;;15.03;49.74;102791.84;5024403;28;19922;-84
2021/11/15 02:05:12;;;;;;;;;;;;;;;16.21;46.44;102789.25;5023798;28;19924;-86
2021/11/15 02:07:37;;;;;;;;;;;;;;;16.11;46.70;102793.31;5022992;28;19956;-86
2021/11/15 02:10:05;;;;;;;;;;;;;;;16.24;47.17;102790.97;5023872;28;19917;-86
2021/11/15 02:12:30;;;;;;;;;;;;;;;16.78;45.43;102783.28;5023730;28;19925;-86
2021/11/15 02:14:55;;;;;;;;;;;;;;;16.45;45.92;102792.81;5023787;28;20338;-86
2021/11/15 02:17:21;;;;;;;;;;;;;;;16.79;45.26;102787.81;5023887;28;19918;-85
2021/11/15 02:19:46;;;;;;;;;;;;;;;17.22;44.65;102782.31;5024546;28;19917;-87
2021/11/15 02:22:11;;;;;;;;;;;;;;;17.14;45.01;102782.66;5041522;28;19921;-86
2021/11/15 02:24:37;;;;;;;;;;;;;;;16.76;45.97;102786.06;5024762;28;19934;-85
2021/11/15 02:27:03;;;;;;;;;;;;;;;16.87;45.25;102782.03;5026093;28;19918;-86
2021/11/15 02:29:29;;;;;;;;;;;;;;;16.60;45.41;102776.75;5025595;28;19928;-86
2021/11/15 02:31:54;;;;;;;;;;;;;;;16.89;45.75;102786.47;5025849;28;19957;-86
2021/11/15 02:34:19;;;;;;;;;;;;;;;16.41;47.01;102780.25;5023491;28;19918;-87
2021/11/15 02:36:44;;;;;;;;;;;;;;;16.78;46.37;102786.00;5039325;28;19917;-86
2021/11/15 02:39:10;;;;;;;;;;;;;;;16.59;46.50;102781.34;5023158;28;19948;-87
2021/11/15 02:41:35;;;;;;;;;;;;;;;16.16;47.49;102788.56;5022561;28;19930;-86
2021/11/15 02:44:02;;;;;;;;;;;;;;;15.65;48.58;102786.88;5023210;28;19947;-86
2021/11/15 02:46:28;;;;;;;;;;;;;;;16.08;47.70;102777.06;5040468;28;19917;-85
2021/11/15 02:48:53;;;;;;;;;;;;;;;16.94;46.17;102778.97;5023409;28;19928;-87
2021/11/15 02:51:18;;;;;;;;;;;;;;;16.38;46.98;102776.75;5024764;28;20375;-86
2021/11/15 02:53:44;;;;;;;;;;;;;;;16.45;46.95;102770.09;5024970;28;19925;-86
2021/11/15 02:56:09;;;;;;;;;;;;;;;16.76;46.57;102772.41;5025822;28;20476;-85
2021/11/15 02:58:35;;;;;;;;;;;;;;;16.78;46.26;102770.50;5026184;28;19925;-85
2021/11/15 03:01:05;;;;;;;;;;;;;;;16.28;47.17;102773.53;5025550;28;19948;-86
2021/11/15 03:03:31;;;;;;;;;;;;;;;16.35;47.44;102768.69;5025756;28;19953;-86
2021/11/15 03:05:56;;;;;;;;;;;;;;;16.69;46.27;102772.75;5025055;28;19917;-87
2021/11/15 03:08:22;;;;;;;;;;;;;;;16.51;46.81;102768.94;5025673;28;20386;-87
2021/11/15 03:10:48;;;;;;;;;;;;;;;15.61;48.49;102769.75;5024410;28;19917;-88
2021/11/15 03:13:15;;;;;;;;;;;;;;;15.90;48.64;102768.63;5040531;28;19980;-88
2021/11/15 03:15:49;;;;;;;;;;;;;;;15.70;48.61;102776.66;5024086;28;20307;-87
2021/11/15 03:18:19;;;;;;;;;;;;;;;16.53;46.73;102773.41;5025814;28;19985;-87
2021/11/15 03:20:55;;;;;;;;;;;;;;;15.73;48.26;102782.91;5023931;28;20005;-82
2021/11/15 03:23:22;;;;;;;;;;;;;;;15.27;50.17;102781.03;5024258;28;20345;-83
2021/11/15 03:25:48;;;;;;;;;;;;;;;16.12;47.45;102775.97;5023251;28;19925;-86
2021/11/15 03:28:15;;;;;;;;;;;;;;;15.81;48.44;102787.22;5023428;28;19960;-87
2021/11/15 03:30:41;;;;;;;;;;;;;;;16.01;46.95;102775.53;5025657;28;19940;-86
2021/11/15 03:33:07;;;;;;;;;;;;;;;15.75;47.60;102781.00;5024728;28;19918;-87
2021/11/15 03:35:32;;;;;;;;;;;;;;;15.80;47.77;102775.41;5024763;28;19953;-87
2021/11/15 03:37:57;;;;;;;;;;;;;;;16.75;45.84;102777.94;5025440;28;19924;-86
2021/11/15 03:40:24;;;;;;;;;;;;;;;16.58;46.07;102770.47;5027757;28;19917;-87
2021/11/15 03:42:50;;;;;;;;;;;;;;;16.18;46.69;102773.00;5029037;28;19918;-84
2021/11/15 03:45:16;;;;;;;;;;;;;;;15.56;48.09;102782.66;5023687;28;19944;-88
2021/11/15 03:47:41;;;;;;;;;;;;;;;15.66;47.56;102780.50;5025066;28;19953;-87
2021/11/15 03:50:09;;;;;;;;;;;;;;;15.60;48.67;102779.75;5023712;28;19917;-87
2021/11/15 03:52:35;;;;;;;;;;;;;;;15.66;48.21;102773.19;5023809;28;20030;-88
2021/11/15 03:55:00;;;;;;;;;;;;;;;15.59;49.20;102774.34;5022891;28;19925;-87
2021/11/15 03:57:25;;;;;;;;;;;;;;;16.14;47.51;102782.28;5024112;28;19917;-88
2021/11/15 03:59:51;;;;;;;;;;;;;;;17.13;45.30;102778.16;5023149;28;19917;-87
2021/11/15 04:02:18;;;;;;;;;;;;;;;17.19;45.24;102783.34;5022357;28;19971;-86
2021/11/15 04:04:51;;;;;;;;;;;;;;;16.43;46.06;102777.47;5040106;28;19917;-88
2021/11/15 04:07:27;;;;;;;;;;;;;;;16.19;46.24;102776.63;5022555;28;20075;-86
2021/11/15 04:09:52;;;;;;;;;;;;;;;16.42;45.80;102775.69;5024605;28;19917;-87
2021/11/15 04:12:18;;;;;;;;;;;;;;;16.15;46.68;102777.69;5023189;28;19918;-87
2021/11/15 04:14:43;;;;;;;;;;;;;;;17.05;44.78;102778.50;5024006;28;19917;-86
2021/11/15 04:17:08;;;;;;;;;;;;;;;16.71;45.73;102776.28;5023949;28;19921;-88
2021/11/15 04:19:34;;;;;;;;;;;;;;;16.99;45.33;102776.91;5039794;28;19968;-87
2021/11/15 04:21:59;;;;;;;;;;;;;;;16.73;45.79;102772.53;5022383;28;19930;-86
2021/11/15 04:24:24;;;;;;;;;;;;;;;16.60;46.32;102776.75;5022988;28;20405;-87
2021/11/15 04:26:50;;;;;;;;;;;;;;;17.21;44.92;102778.72;5024458;28;19927;-86
2021/11/15 04:29:15;;;;;;;;;;;;;;;16.40;46.86;102778.47;5027792;28;19924;-87
2021/11/15 04:31:40;;;;;;;;;;;;;;;16.42;47.43;102783.88;5026684;28;19917;-89
2021/11/15 04:34:05;;;;;;;;;;;;;;;16.64;46.84;102784.75;5023667;28;20293;-88
2021/11/15 04:36:31;;;;;;;;;;;;;;;16.20;48.36;102781.13;5022707;28;19925;-85
2021/11/15 04:38:56;;;;;;;;;;;;;;;15.88;48.24;102786.03;5023142;28;19989;-85
2021/11/15 04:41:21;;;;;;;;;;;;;;;16.16;47.99;102780.38;5022133;28;20342;-86
2021/11/15 04:43:48;;;;;;;;;;;;;;;15.80;48.85;102780.88;5023172;28;19940;-86
2021/11/15 04:46:13;;;;;;;;;;;;;;;15.81;49.60;102779.03;5039881;28;19940;-88
2021/11/15 04:48:39;;;;;;;;;;;;;;;14.73;52.32;102782.91;5023758;28;19956;-86
2021/11/15 04:51:05;;;;;;;;;;;;;;;14.59;53.19;102786.94;5022741;28;20001;-86
2021/11/15 04:53:30;;;;;;;;;;;;;;;14.87;51.66;102781.50;5023499;28;19948;-88
2021/11/15 04:55:55;;;;;;;;;;;;;;;15.70;49.59;102782.13;5039778;28;19926;-87
2021/11/15 04:58:20;;;;;;;;;;;;;;;15.72;49.90;102791.16;5022743;28;20386;-87
2021/11/15 05:00:46;;;;;;;;;;;;;;;15.17;50.73;102794.09;5022678;28;19977;-88
2021/11/15 05:03:13;;;;;;;;;;;;;;;15.62;50.26;102787.88;5023107;28;19926;-88
2021/11/15 05:05:38;;;;;;;;;;;;;;;15.71;49.37;102790.25;5023053;28;19928;-85
2021/11/15 05:08:04;;;;;;;;;;;;;;;15.08;51.13;102803.47;5024435;28;19942;-87
2021/11/15 05:10:30;;;;;;;;;;;;;;;15.66;49.34;102791.41;5025361;28;19913;-89
2021/11/15 05:12:56;;;;;;;;;;;;;;;14.34;52.96;102803.19;5041215;28;19978;-88
2021/11/15 05:15:21;;;;;;;;;;;;;;;14.94;51.89;102795.78;5022932;28;19949;-86
2021/11/15 05:17:47;;;;;;;;;;;;;;;16.09;49.03;102787.00;5040888;28;19912;-87
2021/11/15 05:20:13;;;;;;;;;;;;;;;16.13;48.53;102783.22;5045100;28;19923;-86
2021/11/15 05:22:39;;;;;;;;;;;;;;;15.12;50.57;102794.25;5027700;28;19926;-84
2021/11/15 05:25:05;;;;;;;;;;;;;;;16.39;47.80;102782.16;5027236;28;19979;-88
2021/11/15 05:27:30;;;;;;;;;;;;;;;15.41;49.45;102782.31;5025077;28;19928;-86
2021/11/15 05:29:57;;;;;;;;;;;;;;;14.71;51.59;102788.41;5041729;28;20359;-87
2021/11/15 05:32:22;;;;;;;;;;;;;;;15.28;50.27;102790.97;5024346;28;19923;-86
2021/11/15 05:34:47;;;;;;;;;;;;;;;15.40;49.58;102796.88;5039688;28;19917;-87
2021/11/15 05:37:14;;;;;;;;;;;;;;;15.47;50.14;102794.78;5026911;28;19918;-88
2021/11/15 05:39:40;;;;;;;;;;;;;;;16.13;47.73;102792.28;5027045;28;19988;-86
2021/11/15 05:42:05;;;;;;;;;;;;;;;15.97;48.10;102791.13;5026669;28;19918;-89
2021/11/15 05:44:31;;;;;;;;;;;;;;;16.23;47.85;102783.72;5024890;28;19928;-86
2021/11/15 05:46:56;;;;;;;;;;;;;;;16.80;46.11;102795.03;5034117;28;19925;-85
2021/11/15 05:49:22;;;;;;;;;;;;;;;16.46;47.18;102793.72;5038821;28;20386;-85
2021/11/15 05:51:48;;;;;;;;;;;;;;;15.78;48.64;102796.41;5037300;28;19924;-90
2021/11/15 05:54:14;;;;;;;;;;;;;;;16.08;48.14;102798.91;5022085;28;19976;-82
2021/11/15 05:56:40;;;;;;;;;;;;;;;17.30;45.11;102797.44;5023808;28;19917;-87
2021/11/15 05:59:05;;;;;;;;;;;;;;;17.25;45.66;102799.47;5039347;28;19921;-87
2021/11/15 06:01:31;;;;;;;;;;;;;;;16.86;46.41;102793.88;5023038;28;20017;-87
2021/11/15 06:03:56;;;;;;;;;;;;;;;17.25;45.69;102799.47;5040990;28;20271;-85
2021/11/15 06:06:22;;;;;;;;;;;;;;;16.52;46.89;102793.47;5042885;28;19913;-84
2021/11/15 06:08:48;;;;;;;;;;;;;;;17.22;45.81;102802.34;5043833;28;19982;-87
2021/11/15 06:11:13;;;;;;;;;;;;;;;16.52;47.14;102792.59;5043028;28;19917;-86
2021/11/15 06:13:38;;;;;;;;;;;;;;;16.70;46.71;102804.56;5041290;28;19918;-88
2021/11/15 06:16:04;;;;;;;;;;;;;;;16.44;47.50;102806.53;5025898;28;19927;-88
2021/11/15 06:18:29;;;;;;;;;;;;;;;15.79;49.09;102806.38;5039504;28;19917;-88
2021/11/15 06:20:57;;;;;;;;;;;;;;;15.25;50.55;102813.78;5022668;28;19926;-88
2021/11/15 06:23:22;;;;;;;;;;;;;;;15.54;50.19;102818.19;5037053;28;19922;-87
2021/11/15 06:25:47;;;;;;;;;;;;;;;15.85;49.86;102811.63;5037011;28;19976;-89
2021/11/15 06:28:13;;;;;;;;;;;;;;;16.10;47.95;102807.91;5023169;28;19956;-89
2021/11/15 06:30:38;;;;;;;;;;;;;;;16.05;47.69;102812.69;5037166;28;19918;-87
2021/11/15 06:33:03;;;;;;;;;;;;;;;15.72;48.39;102800.22;5038490;28;20399;-88
2021/11/15 06:35:29;;;;;;;;;;;;;;;15.02;50.11;102817.31;5037522;28;19917;-86
2021/11/15 06:37:55;;;;;;;;;;;;;;;13.64;54.64;102809.88;5021813;28;20370;-88
2021/11/15 06:40:20;;;;;;;;;;;;;;;14.54;53.07;102819.78;5021893;28;19929;-84
2021/11/15 06:42:46;;;;;;;;;;;;;;;15.30;50.96;102817.25;5018476;28;19917;-87
2021/11/15 06:45:12;;;;;;;;;;;;;;;15.84;48.72;102818.00;5018260;28;19917;-86
2021/11/15 06:47:38;;;;;;;;;;;;;;;14.80;51.67;102817.19;5023291;28;19918;-84
2021/11/15 06:50:05;;;;;;;;;;;;;;;15.86;49.44;102809.75;5024450;28;19929;-83
2021/11/15 06:52:30;;;;;;;;;;;;;;;16.29;47.82;102802.63;5024908;28;19975;-84
2021/11/15 06:54:56;;;;;;;;;;;;;;;15.95;48.67;102810.28;5021534;28;20032;-85
2021/11/15 06:57:21;;;;;;;;;;;;;;;15.50;49.72;102805.59;5019887;28;19922;-83
2021/11/15 06:59:47;;;;;;;;;;;;;;;16.01;49.04;102813.75;5019463;28;19988;-86
2021/11/15 07:02:12;;;;;;;;;;;;;;;15.55;49.42;102805.41;5018320;28;19925;-86
2021/11/15 07:04:37;;;;;;;;;;;;;;;14.60;52.01;102817.78;5017829;28;19924;-88
2021/11/15 07:07:03;;;;;;;;;;;;;;;14.68;50.85;102823.94;5017088;28;19918;-89
2021/11/15 07:09:29;;;;;;;;;;;;;;;14.22;52.83;102826.28;5024028;28;19964;-91
2021/11/15 07:11:54;;;;;;;;;;;;;;;14.49;52.01;102838.13;5023603;28;19984;-81
2021/11/15 07:14:20;;;;;;;;;;;;;;;15.14;50.14;102838.72;5007210;28;19917;-82
2021/11/15 07:16:45;;;;;;;;;;;;;;;15.58;49.14;102838.06;5020811;28;19925;-87
2021/11/15 07:19:11;;;;;;;;;;;;;;;15.14;50.03;102846.91;5000813;28;20244;-88
2021/11/15 07:21:36;;;;;;;;;;;;;;;15.90;48.13;102836.88;4998849;28;19972;-85
2021/11/15 07:24:02;;;;;;;;;;;;;;;16.30;47.91;102838.06;5013208;28;19934;-85
2021/11/15 07:26:28;;;;;;;;;;;;;;;15.43;49.15;102844.97;5013044;28;19925;-86
2021/11/15 07:28:53;;;;;;;;;;;;;;;15.71;49.49;102838.50;4998149;28;19972;-86
2021/11/15 07:31:21;;;;;;;;;;;;;;;16.24;48.55;102840.13;4996731;28;20282;-84
2021/11/15 07:33:46;;;;;;;;;;;;;;;15.17;50.99;102844.06;5011402;28;19940;-87
2021/11/15 07:36:12;;;;;;;;;;;;;;;14.75;51.98;102843.69;5014714;28;20057;-85
2021/11/15 07:38:37;;;;;;;;;;;;;;;14.87;52.59;102841.44;5013755;28;20322;-85
2021/11/15 07:41:02;;;;;;;;;;;;;;;15.11;51.37;102849.69;4999568;28;19925;-86
2021/11/15 07:43:28;;;;;;;;;;;;;;;14.70;52.17;102843.81;5014401;28;19925;-87
2021/11/15 07:45:54;;;;;;;;;;;;;;;15.55;49.88;102844.53;5013724;28;19918;-88
2021/11/15 07:48:19;;;;;;;;;;;;;;;15.65;49.12;102838.72;5016226;28;19917;-86
2021/11/15 07:50:46;;;;;;;;;;;;;;;14.77;51.40;102836.38;5000017;28;19917;-85
2021/11/15 07:53:12;;;;;;;;;;;;;;;15.21;50.27;102845.72;5001835;28;19921;-84
2021/11/15 07:55:37;;;;;;;;;;;;;;;16.01;48.58;102836.47;5017105;28;20327;-87
2021/11/15 07:58:04;;;;;;;;;;;;;;;15.48;49.40;102837.50;5001367;28;19922;-88
2021/11/15 08:00:30;;;;;;;;;;;;;;;14.91;51.17;102841.34;4998846;28;19918;-85
2021/11/15 08:02:55;;;;;;;;;;;;;;;15.21;50.70;102840.25;5014557;28;19925;-87
2021/11/15 08:05:21;;;;;;;;;;;;;;;15.45;50.17;102831.28;5014352;28;19918;-89
2021/11/15 08:07:47;;;;;;;;;;;;;;;16.06;48.28;102829.00;5013804;28;19918;-85
2021/11/15 08:10:13;;;;;;;;;;;;;;;16.55;47.32;102830.72;5013650;28;19918;-86
2021/11/15 08:12:39;;;;;;;;;;;;;;;16.44;47.38;102829.31;5013960;28;19924;-85
2021/11/15 08:15:07;;;;;;;;;;;;;;;16.50;47.32;102833.63;4999192;28;19924;-85
2021/11/15 08:17:33;;;;;;;;;;;;;;;16.17;47.81;102830.41;5015954;28;19924;-82
2021/11/15 08:19:59;;;;;;;;;;;;;;;15.70;48.96;102837.63;5000382;28;19922;-88
2021/11/15 08:22:24;;;;;;;;;;;;;;;16.39;47.26;102836.78;5023023;28;19921;-80
2021/11/15 08:24:53;;;;;;;;;;;;;;;16.39;47.09;102836.78;5022540;28;19968;-89
2021/11/15 08:27:19;;;;;;;;;;;;;;;16.28;47.28;102833.59;5033634;28;19922;-87
2021/11/15 08:29:45;;;;;;;;;;;;;;;16.28;47.29;102831.75;5019321;28;19924;-88
2021/11/15 08:32:13;;;;;;;;;;;;;;;16.87;45.70;102826.66;5037720;28;19979;-86
2021/11/15 08:34:38;;;;;;;;;;;;;;;16.51;46.61;102829.06;5021948;28;19988;-88
2021/11/15 08:37:05;;;;;;;;;;;;;;;16.77;45.75;102828.88;5036489;28;19958;-87
2021/11/15 08:39:31;;;;;;;;;;;;;;;16.36;47.43;102830.56;5019765;28;19956;-87
2021/11/15 08:41:57;;;;;;;;;;;;;;;16.72;45.81;102819.06;5010089;28;19925;-84
2021/11/15 08:44:23;;;;;;;;;;;;;;;16.22;46.78;102832.00;4999185;28;19967;-88
2021/11/15 08:46:51;;;;;;;;;;;;;;;16.34;47.06;102819.69;5000832;28;19922;-86
2021/11/15 08:49:18;;;;;;;;;;;;;;;16.16;47.00;102821.31;4999972;28;19918;-89
2021/11/15 08:51:44;;;;;;;;;;;;;;;15.98;47.77;102824.78;4999769;28;19918;-85
2021/11/15 08:54:14;;;;;;;;;;;;;;;15.90;48.12;102825.09;5003838;28;19965;-83
2021/11/15 08:56:40;;;;;;;;;;;;;;;16.01;48.13;102821.94;5005982;28;19929;-86
2021/11/15 08:59:05;;;;;;;;;;;;;;;15.73;48.17;102823.84;5005855;28;19918;-86
2021/11/15 09:01:30;;;;;;;;;;;;;;;16.05;47.73;102832.69;5021983;28;20482;-85
2021/11/15 09:03:56;;;;;;;;;;;;;;;16.42;46.67;102825.72;5003468;28;19918;-85
2021/11/15 09:06:22;;;;;;;;;;;;;;;15.54;48.71;102839.13;5005950;28;19906;-89
2021/11/15 09:08:48;;;;;;;;;;;;;;;14.49;51.44;102834.50;5006137;28;19937;-89
2021/11/15 09:11:14;;;;;;;;;;;;;;;14.82;50.91;102834.34;5004983;28;19918;-86
2021/11/15 09:13:41;;;;;;;;;;;;;;;14.31;51.66;102830.53;5005956;28;19984;-89
2021/11/15 09:16:06;;;;;;;;;;;;;;;14.68;51.04;102837.56;5020003;28;19925;-87
2021/11/15 09:18:32;;;;;;;;;;;;;;;15.04;50.46;102832.69;5004872;28;19918;-87
2021/11/15 09:20:57;;;;;;;;;;;;;;;15.20;49.65;102838.50;5003626;28;20008;-85
2021/11/15 09:23:23;;;;;;;;;;;;;;;13.72;54.52;102837.72;5021100;28;20299;-88
2021/11/15 09:25:48;;;;;;;;;;;;;;;15.02;51.60;102836.41;5005924;28;19974;-86
2021/11/15 09:28:13;;;;;;;;;;;;;;;14.51;52.44;102835.34;5002979;28;20276;-86
2021/11/15 09:30:40;;;;;;;;;;;;;;;14.41;52.78;102836.59;5004373;28;19918;-86
2021/11/15 09:33:05;;;;;;;;;;;;;;;14.14;54.06;102829.22;5005732;28;19925;-87
2021/11/15 09:35:31;;;;;;;;;;;;;;;14.66;51.45;102826.72;5004903;28;20354;-86
2021/11/15 09:37:56;;;;;;;;;;;;;;;14.58;52.25;102826.00;5004018;28;19918;-84
2021/11/15 09:40:22;;;;;;;;;;;;;;;15.02;50.18;102823.69;5002667;28;20009;-88
2021/11/15 09:42:47;;;;;;;;;;;;;;;14.18;52.70;102828.19;5003007;28;20355;-83
2021/11/15 09:45:12;;;;;;;;;;;;;;;14.67;51.62;102824.84;5003376;28;19992;-86
2021/11/15 09:47:39;;;;;;;;;;;;;;;14.70;51.68;102822.03;5003576;28;19929;-87
2021/11/15 09:50:07;;;;;;;;;;;;;;;14.64;51.43;102817.66;5005333;28;19925;-86
2021/11/15 09:52:33;;;;;;;;;;;;;;;13.32;54.68;102822.50;5004127;28;19922;-88
2021/11/15 09:54:59;;;;;;;;;;;;;;;14.64;52.00;102812.22;5004739;28;19936;-89
2021/11/15 09:57:25;;;;;;;;;;;;;;;14.73;51.41;102810.16;5003832;28;20333;-86
2021/11/15 09:59:50;;;;;;;;;;;;;;;14.23;53.05;102805.38;5003776;28;19922;-84
2021/11/15 10:02:15;;;;;;;;;;;;;;;12.67;56.75;102802.47;5007320;28;19918;-85
2021/11/15 10:04:41;;;;;;;;;;;;;;;13.43;55.23;102808.66;5005521;28;20360;-86
2021/11/15 10:07:07;;;;;;;;;;;;;;;14.70;51.79;102808.41;5004794;28;20380;-86
2021/11/15 10:09:34;;;;;;;;;;;;;;;13.72;53.57;102821.41;5000082;28;19989;-85
2021/11/15 10:12:06;;;;;;;;;;;;;;;14.50;52.69;102820.81;5000437;28;19922;-87
2021/11/15 10:14:31;;;;;;;;;;;;;;;14.31;53.38;102819.63;5000627;28;19918;-87
2021/11/15 10:17:02;;;;;;;;;;;;;;;15.07;51.58;102818.06;4998956;28;20355;-84
2021/11/15 10:19:28;;;;;;;;;;;;;;;14.76;51.89;102827.28;5017922;28;19921;-87
2021/11/15 10:21:58;;;;;;;;;;;;;;;15.07;51.08;102832.56;5021227;28;19968;-86
2021/11/15 10:24:35;;;;;;;;;;;;;;;15.73;48.59;102826.56;5035503;28;19922;-87
2021/11/15 10:27:10;;;;;;;;;;;;;;;15.84;48.38;102818.00;5029839;28;20428;-86
2021/11/15 10:29:37;;;;;;;;;;;;;;;16.14;47.68;102806.84;5029193;28;19921;-85
2021/11/15 10:32:04;;;;;;;;;;;;;;;14.57;51.46;102820.63;5024034;28;19980;-88
2021/11/15 10:34:33;;;;;;;;;;;;;;;14.81;51.10;102818.94;5024280;28;20405;-89
2021/11/15 10:37:01;;;;;;;;;;;;;;;14.41;52.17;102809.34;5009777;28;19910;-88
2021/11/15 10:39:29;;;;;;;;;;;;;;;14.57;51.79;102813.38;5009444;28;19918;-87
2021/11/15 10:42:06;;;;;;;;;;;;;;;13.99;53.18;102806.09;5008010;28;20025;-85
2021/11/15 10:44:36;;;;;;;;;;;;;;;15.19;50.78;102806.72;5028748;28;19917;-86
2021/11/15 10:47:03;;;;;;;;;;;;;;;13.78;53.90;102814.91;5019424;28;19922;-90
2021/11/15 10:49:29;;;;;;;;;;;;;;;13.59;54.67;102814.56;5019709;28;19921;-86
2021/11/15 10:52:01;;;;;;;;;;;;;;;14.59;52.79;102813.31;5026944;28;19925;-86
2021/11/15 10:57:24;;;;;;;;;;;;;;;14.65;50.79;102800.41;5005830;28;19971;-86
2021/11/15 11:00:07;;;;;;;;;;;;;;;15.06;50.74;102808.97;5015394;28;19944;-84
2021/11/15 11:02:33;;;;;;;;;;;;;;;13.77;53.56;102808.56;5023127;28;19975;-88
2021/11/15 11:05:09;;;;;;;;;;;;;;;13.41;55.98;102794.22;5022827;28;19945;-85
2021/11/15 11:07:38;;;;;;;;;;;;;;;14.27;52.64;102797.06;5021544;28;19917;-84
2021/11/15 11:10:07;;;;;;;;;;;;;;;14.23;52.95;102797.22;5020371;28;19918;-88
2021/11/15 11:15:32;;;;;;;;;;;;;;;13.85;54.37;102788.41;5018812;28;19925;-88
2021/11/15 11:17:58;;;;;;;;;;;;;;;13.66;55.02;102788.94;5022803;28;20322;-86
2021/11/15 11:20:32;;;;;;;;;;;;;;;13.70;54.79;102782.47;5023057;28;19918;-89
2021/11/15 11:23:19;;;;;;;;;;;;;;;13.49;55.64;102788.56;5022497;28;19929;-89
2021/11/15 11:25:45;;;;;;;;;;;;;;;13.89;53.66;102779.19;5033257;28;19921;-85
2021/11/15 11:28:29;;;;;;;;;;;;;;;13.96;53.47;102778.97;5028171;28;19921;-85
2021/11/15 11:30:55;;;;;;;;;;;;;;;14.53;52.08;102785.31;5004936;28;19922;-87
2021/11/15 11:33:20;;;;;;;;;;;;;;;14.76;50.81;102778.22;5015246;28;19918;-86
2021/11/15 11:35:47;;;;;;;;;;;;;;;15.39;49.39;102778.72;5015123;28;20268;-89
2021/11/15 11:38:12;;;;;;;;;;;;;;;15.32;49.72;102777.16;5014433;28;19917;-86
2021/11/15 11:40:39;;;;;;;;;;;;;;;15.54;49.18;102777.25;5016050;28;19925;-91
2021/11/15 11:43:04;;;;;;;;;;;;;;;15.36;49.30;102786.13;5016022;28;19924;-85
2021/11/15 11:45:30;;;;;;;;;;;;;;;14.52;51.84;102790.81;5014835;28;20000;-86
2021/11/15 11:47:55;;;;;;;;;;;;;;;13.72;54.44;102790.59;5015660;28;19918;-88
2021/11/15 11:50:21;;;;;;;;;;;;;;;15.14;51.02;102789.66;5016696;28;19941;-87
2021/11/15 11:53:00;;;;;;;;;;;;;;;15.44;49.49;102777.66;5027837;28;19922;-87
2021/11/15 11:55:25;;;;;;;;;;;;;;;15.69;48.79;102777.63;5033503;28;19929;-82
2021/11/15 11:57:52;;;;;;;;;;;;;;;15.05;49.86;102769.06;5022483;28;20302;-86
2021/11/15 12:00:18;;;;;;;;;;;;;;;15.70;48.82;102771.22;5035158;28;19925;-85
2021/11/15 12:02:45;;;;;;;;;;;;;;;14.98;50.68;102772.06;5020493;28;19925;-86
2021/11/15 12:05:15;;;;;;;;;;;;;;;15.59;49.16;102767.09;5039369;28;19932;-86
2021/11/15 12:07:40;;;;;;;;;;;;;;;15.32;49.87;102762.66;5036146;28;19964;-85
2021/11/15 12:10:08;;;;;;;;;;;;;;;14.35;51.47;102764.16;5017998;28;19925;-84
2021/11/15 12:12:52;;;;;;;;;;;;;;;13.81;53.81;102766.75;5034726;28;19917;-86
2021/11/15 12:15:30;;;;;;;;;;;;;;;13.79;54.04;102760.44;5018337;28;19917;-86
2021/11/15 12:18:18;;;;;;;;;;;;;;;14.38;52.51;102760.44;5034428;28;19918;-88
2021/11/15 12:21:05;;;;;;;;;;;;;;;14.81;50.85;102759.91;5036689;28;19967;-88
2021/11/15 12:23:33;;;;;;;;;;;;;;;15.26;50.08;102754.69;5020820;28;19922;-87
2021/11/15 12:26:06;;;;;;;;;;;;;;;15.83;48.95;102758.91;5036696;28;19925;-84
2021/11/15 12:28:32;;;;;;;;;;;;;;;14.03;53.08;102755.19;5037020;28;20389;-84
2021/11/15 12:30:58;;;;;;;;;;;;;;;12.92;56.90;102755.66;5036218;28;19928;-85
2021/11/15 12:33:25;;;;;;;;;;;;;;;13.66;53.97;102761.75;5035025;28;19941;-89
2021/11/15 12:35:50;;;;;;;;;;;;;;;13.80;53.72;102754.06;5034950;28;19989;-85
2021/11/15 12:38:34;;;;;;;;;;;;;;;14.42;51.76;102757.56;5020473;28;20419;-88